Flight Track Log - Related Links

Times and Time Zones

All times are in EDT time to prevent confusion due to time zone crossing. See the SKW6345 flight status page for this flight to view local times or setup timezone preferences in your user account.

Time Position Orientation Groundspeed Altitude Reporting Facility
EDT Latitude Longitude Course Direction KTS MPH feet Rate Location/Type
Fri 11:44:09 AM 39.8333 -104.7333 233° Southwest 176 203 6,100  Level Denver TRACON
Fri 11:44:28 AM 39.8408 -104.7553 294° West 177 204 6,600 1,926 Climbing Denver Center
Fri 11:45:30 AM 39.8186 -104.8428 252° West 241 277 8,700 2,226 Climbing Denver Center
Fri 11:46:32 AM 39.7644 -104.9106 224° Southwest 279 321 11,200 2,081 Climbing Denver Center
Fri 11:47:34 AM 39.6736 -104.9581 202° Southwest 338 389 13,000 2,081 Climbing Denver Center
Fri 11:48:00 AM 39.4365 -104.5469 218° Southwest  Level FlightAware Approximate
Fri 11:48:36 AM 39.5783 -104.9764 188° South 357 411 15,500  Level Denver Center
Fri 11:49:00 AM 39.3535 -104.6680 233° Southwest  Level FlightAware Approximate
Fri 11:49:38 AM 39.4697 -104.9978 189° South 370 426 17,900  Level Denver Center
Fri 11:50:40 AM 39.3650 -105.0183 189° South 381 438 19,700 1,887 Climbing Denver Center
Fri 11:51:42 AM 39.2489 -105.0400 188° South 394 453 21,800 1,790 Climbing Denver Center
Fri 11:52:44 AM 39.1383 -105.0658 190° South 385 443 23,400 1,306 Climbing Denver Center
Fri 11:53:46 AM 39.0381 -105.1281 206° Southwest 414 476 24,500 1,258 Climbing Denver Center
Fri 11:54:48 AM 38.9283 -105.1975 206° Southwest 431 496 26,000 1,694 Climbing Denver Center
Fri 11:55:50 AM 38.8203 -105.2686 207° Southwest 433 498 28,000 1,984 Climbing Denver Center
Fri 11:56:52 AM 38.6958 -105.3453 206° Southwest 423 487 30,100 1,584 Climbing Denver Center
Fri 11:57:55 AM 38.5892 -105.4144 207° Southwest 423 487 31,300 1,056 Climbing Denver Center
Fri 11:58:57 AM 38.4797 -105.4825 206° Southwest 433 498 32,300 1,016 Climbing Denver Center
Fri 11:59:59 AM 38.3681 -105.5539 207° Southwest 441 507 33,400 1,065 Climbing Denver Center
Fri 12:01:01 PM 38.2650 -105.6631 220° Southwest 437 503 34,500 968 Climbing Denver Center
Fri 12:02:03 PM 38.1822 -105.7636 224° Southwest 432 497 35,400 968 Climbing Denver Center
Fri 12:03:05 PM 38.0822 -105.8817 223° Southwest 438 504 36,500 1,016 Climbing Denver Center
Fri 12:04:07 PM 38.0014 -105.9803 224° Southwest 427 491 37,500 726 Climbing Denver Center
Fri 12:05:09 PM 37.9186 -106.0792 223° Southwest 427 491 38,000 242 Climbing Denver Center
Fri 12:06:11 PM 37.8175 -106.2017 224° Southwest 438 504 38,000  Level Denver Center
Fri 12:07:13 PM 37.7294 -106.3050 223° Southwest 448 516 38,000  Level Denver Center
Fri 12:08:15 PM 37.6269 -106.4264 223° Southwest 450 518 38,000  Level Denver Center
Fri 12:09:18 PM 37.5419 -106.5272 223° Southwest 441 507 38,000  Level Denver Center
Fri 12:10:20 PM 37.4422 -106.6428 223° Southwest 435 501 38,000  Level Denver Center
Fri 12:11:21 PM 37.3583 -106.7436 224° Southwest 437 503 38,000  Level Denver Center
Fri 12:12:23 PM 37.2569 -106.8614 223° Southwest 444 511 38,000  Level Denver Center
Fri 12:13:26 PM 37.1692 -106.9639 223° Southwest 447 514 38,000  Level Denver Center
Fri 12:14:28 PM 37.0806 -107.0661 223° Southwest 451 519 38,000  Level Denver Center
Fri 12:15:30 PM 36.9781 -107.1844 223° Southwest 449 517 38,000  Level Denver Center
Fri 12:16:32 PM 36.8903 -107.2844 222° Southwest 447 514 38,000  Level Denver Center
Fri 12:17:34 PM 36.7903 -107.3992 223° Southwest 438 504 38,000  Level Denver Center
Fri 12:18:36 PM 36.7061 -107.4981 223° Southwest 434 499 38,000  Level Denver Center
Fri 12:19:38 PM 36.6058 -107.6111 222° Southwest 434 499 38,000  Level Denver Center
Fri 12:20:40 PM 36.5211 -107.7078 223° Southwest 432 497 38,000  Level Denver Center
Fri 12:21:42 PM 36.4239 -107.8194 223° Southwest 428 493 38,000  Level Denver Center
Fri 12:22:44 PM 36.3383 -107.9156 222° Southwest 431 496 38,000  Level Denver Center
Fri 12:23:46 PM 36.2367 -108.0292 222° Southwest 436 502 38,000  Level Denver Center
Fri 12:24:48 PM 36.1506 -108.1269 223° Southwest 438 504 38,000  Level Denver Center
Fri 12:25:40 PM 36.0769 -108.2100 222° Southwest 440 506 38,000  Level Albuquerque Center
Fri 12:26:42 PM 35.9736 -108.3250 222° Southwest 444 511 38,000 -435 Level Albuquerque Center
Fri 12:27:44 PM 35.8858 -108.4236 222° Southwest 443 510 37,100 -968 Descending Albuquerque Center
Fri 12:28:46 PM 35.7822 -108.5375 222° Southwest 443 510 36,000 -532 Descending Albuquerque Center
Fri 12:29:48 PM 35.6942 -108.6356 222° Southwest 443 510 36,000  Level Albuquerque Center
Fri 12:30:50 PM 35.5911 -108.7486 222° Southwest 441 507 36,000  Level Albuquerque Center
Fri 12:31:52 PM 35.5033 -108.8453 222° Southwest 441 507 36,000  Level Albuquerque Center
Fri 12:32:54 PM 35.4206 -108.9467 225° Southwest 439 505 36,000  Level Albuquerque Center
Fri 12:33:56 PM 35.3264 -109.0692 227° Southwest 440 506 36,000  Level Albuquerque Center
Fri 12:34:58 PM 35.2456 -109.1736 227° Southwest 440 506 36,000  Level Albuquerque Center
Fri 12:36:00 PM 35.1522 -109.2947 227° Southwest 438 504 36,000  Level Albuquerque Center
Fri 12:37:03 PM 35.0714 -109.3967 226° Southwest 437 503 36,000  Level Albuquerque Center
Fri 12:38:05 PM 34.9764 -109.5128 225° Southwest 433 498 36,000  Level Albuquerque Center
Fri 12:39:07 PM 34.8961 -109.6161 227° Southwest 434 499 36,000  Level Albuquerque Center
Fri 12:40:09 PM 34.8036 -109.7342 226° Southwest 433 498 36,000  Level Albuquerque Center
Fri 12:41:11 PM 34.7244 -109.8344 226° Southwest 430 495 36,000  Level Albuquerque Center
Fri 12:42:13 PM 34.6650 -109.9747 243° Southwest 414 476 36,000  Level Albuquerque Center
Fri 12:43:15 PM 34.6192 -110.0972 246° West 414 476 36,000 -387 Level Albuquerque Center
Fri 12:44:17 PM 34.5664 -110.2383 246° West 413 475 35,200 -1,258 Descending Albuquerque Center
Fri 12:45:19 PM 34.5197 -110.3603 245° Southwest 414 476 33,400 -1,694 Descending Albuquerque Center
Fri 12:46:21 PM 34.4742 -110.4867 246° West 422 486 31,700 -1,839 Descending Albuquerque Center
Fri 12:47:23 PM 34.4203 -110.6275 245° Southwest 416 479 29,600 -1,935 Descending Albuquerque Center
Fri 12:48:25 PM 34.3778 -110.7394 245° Southwest 403 464 27,700 -1,887 Descending Albuquerque Center
Fri 12:49:27 PM 34.3197 -110.8414 235° Southwest 385 443 25,700 -2,129 Descending Albuquerque Center
Fri 12:50:29 PM 34.2339 -110.9533 227° Southwest 382 440 23,300 -2,032 Descending Albuquerque Center
Fri 12:51:31 PM 34.1700 -111.0361 227° Southwest 373 429 21,500 -1,548 Descending Albuquerque Center
Fri 12:52:33 PM 34.1000 -111.1239 226° Southwest 357 411 20,100 -1,258 Descending Albuquerque Center
Fri 12:53:35 PM 34.0350 -111.2092 227° Southwest 350 403 18,900 -1,344 Descending Albuquerque Center
Fri 12:54:38 PM 33.9547 -111.3086 226° Southwest 347 399 17,300 -1,536 Descending Albuquerque Center
Fri 12:55:40 PM 33.8894 -111.3928 227° Southwest 319 367 15,700 -1,452 Descending Albuquerque Center
Fri 12:56:42 PM 33.8425 -111.4753 236° Southwest 298 343 14,300 -1,452 Descending Albuquerque Center
Fri 12:57:44 PM 33.7986 -111.5597 238° Southwest 297 342 12,700 -1,645 Descending Albuquerque Center
Fri 12:58:46 PM 33.7506 -111.6506 238° Southwest 299 344 10,900 -1,452 Descending Albuquerque Center
Fri 12:59:48 PM 33.7075 -111.7317 237° Southwest 291 335 9,700 -919 Descending Albuquerque Center
Fri 01:00:50 PM 33.6589 -111.8203 237° Southwest 294 338 9,000 -339 Descending Albuquerque Center
Fri 01:01:52 PM 33.6164 -111.8983 237° Southwest 282 325 9,000 -194 Level Albuquerque Center
Fri 01:02:54 PM 33.5772 -111.9725 238° Southwest 248 285 8,600 -774 Descending Albuquerque Center
Fri 01:03:56 PM 33.5411 -112.0431 238° Southwest 249 287 7,400 -1,258 Descending Albuquerque Center
Fri 01:04:58 PM 33.5250 -112.1239 257° West 238 274 6,000 -1,548 Descending Albuquerque Center
Fri 01:06:00 PM 33.5031 -112.1919 249° West 237 273 4,200 -1,452 Descending Albuquerque Center
Fri 01:07:02 PM 33.4556 -112.1647 154° Southeast 195 224 3,000 -823 Descending Albuquerque Center
Fri 01:08:04 PM 33.4406 -112.1125 109° East 174 200 2,500 -484 Descending Albuquerque Center

Login

Don't have an account? Register now (free) for customized features, flight alerts, and more!